Terminal Aerodrome Forecast
Issued by NWS

Home | Current Version | Previous Version | Text Only | Print | Product List | Glossary On
Versions: 1 2 3 4 5 6 7 8 9 10 11 12 13 14 15
000
FTUS45 KABQ 051140
TAFROW
TAF
KROW 051140Z 0512/0612 VRB05KT P6SM BKN150
     FM051600 16010KT P6SM SCT150
     FM052000 18010G17KT P6SM SCT090 SCT250
     FM060200 20007KT P6SM FEW090 BKN200=

USA.gov is the U.S. government's official web portal to all federal, state and local government web resources and services.